createdAt,value
2023-01-13T00:02:00.001Z,1.00
2023-01-13T00:04:31.975Z,1.23
2023-01-13T00:07:03.051Z,1.25
2023-01-13T00:09:34.097Z,1.35
2023-01-13T00:12:05.047Z,1.23
2023-01-13T00:14:40.138Z,1.05
2023-01-13T00:17:11.041Z,0.90
2023-01-13T00:19:42.070Z,1.30
2023-01-13T00:22:12.990Z,1.20
2023-01-13T00:24:43.973Z,1.02
2023-01-13T00:27:14.940Z,1.42
2023-01-13T00:29:48.508Z,1.20
2023-01-13T00:32:19.419Z,1.33
2023-01-13T00:34:50.509Z,1.25
2023-01-13T00:37:21.515Z,0.90
2023-01-13T00:39:53.612Z,1.30
2023-01-13T00:42:36.742Z,1.15
2023-01-13T00:45:11.375Z,1.75
2023-01-13T00:47:42.515Z,1.58
2023-01-13T00:50:14.620Z,2.08
2023-01-13T00:52:45.670Z,1.95
2023-01-13T00:55:16.718Z,1.58
2023-01-13T00:57:47.599Z,2.08
2023-01-13T01:00:22.377Z,1.50
2023-01-13T01:02:53.143Z,1.58
2023-01-13T01:05:23.913Z,1.95
2023-01-13T01:07:54.736Z,1.65
2023-01-13T01:10:25.584Z,1.70
2023-01-13T01:12:56.373Z,2.33
2023-01-13T01:15:29.818Z,1.88
2023-01-13T01:18:00.586Z,1.20
2023-01-13T01:20:31.436Z,2.00
2023-01-13T01:23:02.316Z,2.00
2023-01-13T01:25:33.157Z,1.60
2023-01-13T01:28:04.136Z,2.45
2023-01-13T01:30:37.545Z,2.42
2023-01-13T01:33:08.377Z,1.73
2023-01-13T01:35:43.145Z,2.17
2023-01-13T01:38:13.965Z,2.55
2023-01-13T01:40:44.812Z,1.98
2023-01-13T01:43:31.200Z,2.53
2023-01-13T01:46:05.000Z,3.40
2023-01-13T01:48:41.444Z,5.18
2023-01-13T01:51:16.398Z,4.03
2023-01-13T01:53:48.283Z,2.30
2023-01-13T01:56:20.320Z,3.00
2023-01-13T01:58:54.067Z,1.95
2023-01-13T02:01:27.563Z,1.98
2023-01-13T02:04:04.711Z,2.22
2023-01-13T02:06:35.791Z,2.47
2023-01-13T02:09:07.046Z,2.35
2023-01-13T02:11:51.535Z,2.70
2023-01-13T02:14:24.424Z,3.85
2023-01-13T02:17:21.091Z,3.05
2023-01-13T02:20:22.319Z,2.65
2023-01-13T02:23:41.692Z,2.92
2023-01-13T02:26:36.374Z,2.00
2023-01-13T02:29:29.131Z,4.18
2023-01-13T02:32:09.909Z,3.50
2023-01-13T02:34:45.362Z,2.65
2023-01-13T02:37:19.986Z,3.15
2023-01-13T02:40:00.740Z,3.03
2023-01-13T02:42:48.480Z,2.60
2023-01-13T02:45:23.035Z,2.72
2023-01-13T02:47:58.141Z,2.13
2023-01-13T02:50:35.716Z,3.17
2023-01-13T02:53:11.516Z,2.80
2023-01-13T02:55:46.606Z,2.03
2023-01-13T02:58:20.220Z,3.17
2023-01-13T03:00:52.678Z,4.25
2023-01-13T03:03:26.276Z,3.35
2023-01-13T03:06:04.228Z,2.67
2023-01-13T03:08:43.151Z,2.80
2023-01-13T03:11:16.417Z,2.50
2023-01-13T03:14:12.290Z,1.92
2023-01-13T03:17:02.619Z,1.85
2023-01-13T03:19:45.831Z,2.45
2023-01-13T03:22:25.119Z,2.40
2023-01-13T03:25:02.917Z,1.83
2023-01-13T03:27:44.041Z,2.13
2023-01-13T03:30:19.589Z,1.38
2023-01-13T03:32:52.939Z,2.65
2023-01-13T03:35:31.723Z,1.70
2023-01-13T03:38:08.596Z,2.10
2023-01-13T03:43:30.488Z,2.00
2023-01-13T03:46:05.733Z,1.75
2023-01-13T03:48:41.720Z,2.50
2023-01-13T03:51:20.306Z,1.90
2023-01-13T03:53:56.161Z,3.10
2023-01-13T03:56:32.283Z,3.20
2023-01-13T03:59:05.538Z,2.30
2023-01-13T04:01:40.483Z,2.80
2023-01-13T04:04:16.978Z,2.13
2023-01-13T04:07:01.209Z,1.73
2023-01-13T04:09:38.988Z,1.95
2023-01-13T04:12:14.522Z,2.88
2023-01-13T04:14:46.252Z,1.73
2023-01-13T04:17:18.517Z,2.15
2023-01-13T04:19:49.288Z,1.83
2023-01-13T04:22:22.732Z,2.70
2023-01-13T04:24:53.689Z,2.38
2023-01-13T04:27:24.559Z,2.25
2023-01-13T04:29:55.593Z,2.40
2023-01-13T04:32:26.459Z,2.42
2023-01-13T04:34:57.888Z,2.92
2023-01-13T04:37:31.496Z,2.22
2023-01-13T04:40:02.382Z,2.20
2023-01-13T04:42:33.162Z,2.85
2023-01-13T04:45:04.146Z,2.47
2023-01-13T04:47:35.017Z,2.00
2023-01-13T04:50:05.916Z,2.15
2023-01-13T04:52:39.327Z,3.22
2023-01-13T04:55:12.663Z,2.60
2023-01-13T04:57:43.586Z,3.45
2023-01-13T05:00:18.417Z,3.03
2023-01-13T05:02:49.412Z,2.75
2023-01-13T05:05:20.980Z,2.97
2023-01-13T05:07:54.559Z,3.55
2023-01-13T05:10:25.568Z,2.72
2023-01-13T05:13:08.765Z,3.08
2023-01-13T05:15:52.082Z,2.67
2023-01-13T05:18:23.325Z,2.42
2023-01-13T05:20:54.177Z,4.45
2023-01-13T05:23:40.211Z,3.03
2023-01-13T05:26:11.229Z,2.00
2023-01-13T05:28:42.066Z,3.90
2023-01-13T05:31:15.160Z,2.65
2023-01-13T05:33:46.014Z,2.90
2023-01-13T05:36:18.758Z,3.35
2023-01-13T05:38:54.269Z,2.10
2023-01-13T05:41:37.362Z,2.42
2023-01-13T05:44:08.482Z,2.72
2023-01-13T05:46:40.799Z,2.55
2023-01-13T05:49:11.955Z,2.83
2023-01-13T05:51:46.040Z,3.60
2023-01-13T05:54:19.550Z,2.30
2023-01-13T05:56:50.394Z,2.38
2023-01-13T05:59:21.284Z,1.67
2023-01-13T06:01:51.563Z,2.38
2023-01-13T06:04:22.155Z,1.92
2023-01-13T06:06:52.498Z,3.83
2023-01-13T06:09:25.650Z,2.35
2023-01-13T06:11:55.994Z,1.65
2023-01-13T06:14:40.001Z,2.08
2023-01-13T06:17:11.582Z,2.15
2023-01-13T06:19:42.392Z,2.10
2023-01-13T06:22:18.589Z,1.42
2023-01-13T06:24:53.724Z,2.25
2023-01-13T06:27:25.323Z,2.28
2023-01-13T06:29:56.667Z,1.77
2023-01-13T06:32:30.327Z,1.63
2023-01-13T06:35:05.576Z,3.58
2023-01-13T06:37:37.363Z,3.33
2023-01-13T06:40:12.930Z,3.38
2023-01-13T06:42:56.059Z,3.08
2023-01-13T06:45:28.001Z,2.40
2023-01-13T06:47:59.748Z,1.90
2023-01-13T06:50:30.761Z,1.80
2023-01-13T06:53:01.165Z,1.60
2023-01-13T06:55:34.146Z,1.73
2023-01-13T06:58:04.535Z,2.15
2023-01-13T07:00:35.796Z,2.20
2023-01-13T07:03:11.060Z,3.47
2023-01-13T07:05:42.004Z,2.67
2023-01-13T07:08:13.177Z,2.42
2023-01-13T07:10:46.080Z,2.80
2023-01-13T07:13:33.060Z,3.45
2023-01-13T07:16:05.176Z,4.00
2023-01-13T07:18:37.181Z,3.05
2023-01-13T07:21:09.791Z,2.83
2023-01-13T07:23:42.325Z,2.63
2023-01-13T07:26:15.748Z,2.90
2023-01-13T07:28:46.490Z,3.05
2023-01-13T07:31:18.685Z,3.70
2023-01-13T07:33:49.262Z,2.78
2023-01-13T07:36:19.617Z,3.20
2023-01-13T07:38:56.879Z,4.72
2023-01-13T07:41:42.420Z,5.13
2023-01-13T07:44:13.113Z,2.45
2023-01-13T07:46:44.089Z,2.90
2023-01-13T07:49:14.505Z,3.22
2023-01-13T07:51:47.860Z,2.03
2023-01-13T07:54:19.426Z,2.25
2023-01-13T07:56:52.480Z,2.05
2023-01-13T07:59:27.074Z,1.63
2023-01-13T08:01:59.696Z,2.20
2023-01-13T08:04:31.824Z,1.90
2023-01-13T08:07:02.267Z,1.60
2023-01-13T08:09:32.934Z,2.58
2023-01-13T08:12:18.249Z,1.75
2023-01-13T08:14:50.446Z,2.10
2023-01-13T08:17:23.395Z,2.08
2023-01-13T08:19:54.268Z,2.00
2023-01-13T08:22:26.783Z,2.60
2023-01-13T08:24:59.247Z,2.47
2023-01-13T08:27:33.544Z,2.35
2023-01-13T08:30:03.980Z,2.35
2023-01-13T08:32:35.271Z,2.20
2023-01-13T08:35:05.715Z,3.50
2023-01-13T08:37:36.096Z,2.75
2023-01-13T08:40:06.593Z,2.35
2023-01-13T08:42:39.584Z,2.33
2023-01-13T08:45:13.319Z,3.63
2023-01-13T08:47:49.536Z,2.75
2023-01-13T08:50:22.602Z,3.17
2023-01-13T08:52:52.897Z,2.90
2023-01-13T08:55:23.446Z,2.95
2023-01-13T08:58:14.053Z,2.83
2023-01-13T09:00:46.074Z,3.15
2023-01-13T09:03:16.396Z,3.28
2023-01-13T09:05:46.845Z,3.60
2023-01-13T09:08:17.210Z,4.07
2023-01-13T09:10:47.598Z,3.90
2023-01-13T09:13:18.003Z,2.95
2023-01-13T09:15:49.230Z,3.20
2023-01-13T09:18:19.596Z,3.47
2023-01-13T09:20:50.000Z,3.72
2023-01-13T09:23:20.365Z,3.30
2023-01-13T09:25:50.620Z,3.25
2023-01-13T09:28:23.985Z,2.75
2023-01-13T09:30:54.295Z,5.15
2023-01-13T09:33:37.230Z,3.53
2023-01-13T09:36:08.580Z,2.72
2023-01-13T09:38:39.133Z,3.20
2023-01-13T09:41:29.734Z,3.45
2023-01-13T09:44:01.858Z,3.17
2023-01-13T09:46:49.891Z,3.78
2023-01-13T09:49:24.163Z,3.08
2023-01-13T09:52:01.568Z,3.70
2023-01-13T09:54:36.478Z,4.28
2023-01-13T09:57:12.731Z,3.40
2023-01-13T09:59:46.617Z,3.03
2023-01-13T10:02:32.072Z,5.22
2023-01-13T10:05:07.251Z,3.75
2023-01-13T10:07:41.202Z,3.88
2023-01-13T10:10:18.569Z,8.63
2023-01-13T10:13:04.154Z,4.68
2023-01-13T10:15:37.177Z,4.00
2023-01-13T10:18:15.159Z,4.75
2023-01-13T10:20:55.214Z,3.90
2023-01-13T10:23:40.739Z,3.08
2023-01-13T10:26:25.296Z,2.95
2023-01-13T10:28:56.098Z,4.38
2023-01-13T10:31:29.520Z,3.92
2023-01-13T10:34:02.189Z,4.32
2023-01-13T10:36:35.479Z,4.13
2023-01-13T10:39:12.107Z,3.38
2023-01-13T10:41:42.521Z,4.03
2023-01-13T10:44:19.041Z,3.15
2023-01-13T10:47:00.406Z,3.53
2023-01-13T10:49:36.449Z,2.83
2023-01-13T10:52:26.623Z,3.08
2023-01-13T10:54:57.989Z,3.40
2023-01-13T10:57:30.680Z,3.03
2023-01-13T11:00:01.301Z,3.83
2023-01-13T11:02:37.377Z,4.32
2023-01-13T11:05:20.557Z,3.13
2023-01-13T11:07:55.019Z,3.58
2023-01-13T11:10:27.705Z,3.08
2023-01-13T11:13:08.614Z,3.10
2023-01-13T11:15:46.313Z,3.70
2023-01-13T11:18:24.559Z,2.85
2023-01-13T11:20:55.867Z,3.15
2023-01-13T11:23:32.316Z,3.50
2023-01-13T11:26:07.711Z,3.47
2023-01-13T11:28:44.958Z,3.75
2023-01-13T11:31:21.639Z,3.33
2023-01-13T11:33:59.422Z,3.20
2023-01-13T11:36:36.625Z,3.58
2023-01-13T11:39:24.046Z,3.53
2023-01-13T11:44:52.479Z,3.65
2023-01-13T11:47:26.558Z,3.95
2023-01-13T11:49:59.821Z,3.70
2023-01-13T11:52:46.874Z,4.25
2023-01-13T11:55:31.587Z,3.38
2023-01-13T11:58:49.691Z,3.25
2023-01-13T12:01:34.005Z,3.38
2023-01-13T12:04:23.733Z,3.50
2023-01-13T12:07:12.848Z,3.03
2023-01-13T12:09:55.388Z,3.95
2023-01-13T12:12:39.396Z,3.00
2023-01-13T12:15:39.223Z,2.80
2023-01-13T12:18:34.485Z,3.85
2023-01-13T12:21:22.028Z,3.35
2023-01-13T12:26:34.862Z,3.05
2023-01-13T12:29:09.757Z,3.08
2023-01-13T12:31:43.268Z,3.70
2023-01-13T12:34:27.284Z,3.67
2023-01-13T12:37:10.359Z,3.22
2023-01-13T12:39:53.740Z,2.75
2023-01-13T12:42:43.547Z,3.15
2023-01-13T12:45:27.269Z,3.67
2023-01-13T12:47:58.456Z,3.25
2023-01-13T12:50:45.836Z,3.15
2023-01-13T12:53:36.455Z,3.03
2023-01-13T12:56:40.889Z,3.97
2023-01-13T12:59:52.654Z,3.63
2023-01-13T13:02:36.154Z,3.22
2023-01-13T13:05:39.583Z,3.10
2023-01-13T13:08:27.783Z,4.40
2023-01-13T13:11:31.844Z,5.55
2023-01-13T13:14:04.001Z,5.80
2023-01-13T13:16:53.708Z,3.90
2023-01-13T13:19:50.914Z,4.10
2023-01-13T13:22:46.451Z,5.20
2023-01-13T13:25:28.143Z,4.72
2023-01-13T13:28:17.247Z,3.53
2023-01-13T13:31:04.450Z,4.13
2023-01-13T13:33:56.565Z,3.70
2023-01-13T13:36:48.810Z,3.72
2023-01-13T13:39:39.689Z,3.85
2023-01-13T13:42:28.818Z,3.22
2023-01-13T13:45:12.766Z,3.42
2023-01-13T13:47:45.812Z,5.15
2023-01-13T13:50:19.792Z,5.15
2023-01-13T13:52:56.531Z,3.45
2023-01-13T13:55:28.871Z,4.95
2023-01-13T13:58:01.712Z,3.38
2023-01-13T14:00:34.272Z,3.10
2023-01-13T14:03:10.865Z,3.08
2023-01-13T14:05:41.253Z,3.17
2023-01-13T14:08:17.170Z,3.13
2023-01-13T14:10:49.219Z,4.30
2023-01-13T14:13:25.049Z,2.75
2023-01-13T14:16:00.583Z,3.72
2023-01-13T14:18:35.691Z,4.45
2023-01-13T14:21:08.434Z,3.40
2023-01-13T14:23:38.793Z,3.95
2023-01-13T14:26:13.118Z,3.60
2023-01-13T14:28:45.178Z,3.10
2023-01-13T14:31:16.970Z,4.13
2023-01-13T14:33:52.299Z,3.72
2023-01-13T14:36:25.159Z,3.75
2023-01-13T14:39:25.534Z,3.33
2023-01-13T14:41:56.929Z,3.53
2023-01-13T14:44:29.844Z,3.15
2023-01-13T14:47:02.213Z,3.90
2023-01-13T14:49:39.752Z,3.25
2023-01-13T14:52:16.787Z,3.13
2023-01-13T14:57:27.738Z,3.08
2023-01-13T15:00:21.454Z,3.38
2023-01-13T15:03:02.521Z,3.33
2023-01-13T15:05:42.801Z,3.10
2023-01-13T15:08:30.430Z,2.90
2023-01-13T15:11:02.616Z,4.43
2023-01-13T15:13:41.229Z,4.57
2023-01-13T15:16:20.030Z,3.45
2023-01-13T15:18:51.011Z,2.92
2023-01-13T15:21:25.185Z,4.20
2023-01-13T15:23:55.537Z,2.83
2023-01-13T15:26:28.456Z,3.50
2023-01-13T15:29:00.883Z,2.40
2023-01-13T15:31:31.682Z,4.43
2023-01-13T15:34:02.074Z,3.00
2023-01-13T15:36:37.748Z,3.47
2023-01-13T15:39:09.675Z,3.67
2023-01-13T15:41:52.378Z,3.15
2023-01-13T15:44:35.248Z,4.45
2023-01-13T15:47:08.973Z,3.05
2023-01-13T15:49:42.340Z,3.40
2023-01-13T15:52:22.725Z,2.72
2023-01-13T15:54:53.802Z,2.58
2023-01-13T15:57:26.868Z,2.60
2023-01-13T16:00:00.393Z,2.70
2023-01-13T16:02:31.291Z,2.33
2023-01-13T16:05:01.620Z,2.78
2023-01-13T16:07:34.593Z,3.25
2023-01-13T16:10:05.228Z,2.90
2023-01-13T16:12:37.608Z,2.83
2023-01-13T16:15:08.895Z,3.30
2023-01-13T16:17:39.562Z,3.10
2023-01-13T16:20:16.592Z,2.60
2023-01-13T16:25:21.029Z,2.58
2023-01-13T16:27:51.536Z,2.95
2023-01-13T16:30:27.563Z,3.50
2023-01-13T16:32:58.080Z,3.27
2023-01-13T16:35:29.505Z,2.22
2023-01-13T16:38:02.612Z,2.38
2023-01-13T16:40:35.463Z,2.55
2023-01-13T16:43:07.265Z,2.15
2023-01-13T16:45:37.616Z,2.67
2023-01-13T16:48:22.817Z,2.55
2023-01-13T16:50:53.138Z,3.05
2023-01-13T16:53:26.644Z,2.63
2023-01-13T16:55:56.984Z,3.53
2023-01-13T16:58:27.344Z,2.00
2023-01-13T17:00:57.735Z,3.10
2023-01-13T17:03:29.960Z,2.38
2023-01-13T17:06:04.457Z,2.65
2023-01-13T17:08:37.563Z,3.50
2023-01-13T17:11:08.228Z,4.57
2023-01-13T17:13:38.502Z,4.63
2023-01-13T17:16:17.349Z,5.93
2023-01-13T17:18:48.260Z,10.25
2023-01-13T17:21:18.889Z,4.63
2023-01-13T17:23:51.983Z,4.60
2023-01-13T17:26:33.938Z,3.03
2023-01-13T17:29:05.109Z,2.92
2023-01-13T17:31:35.610Z,4.15
2023-01-13T17:34:06.571Z,8.45
2023-01-13T17:36:37.098Z,9.90
2023-01-13T17:39:10.393Z,8.75
2023-01-13T17:41:40.673Z,6.55
2023-01-13T17:44:11.784Z,6.60
2023-01-13T17:46:42.463Z,5.07
2023-01-13T17:49:13.567Z,4.55
2023-01-13T17:51:44.919Z,3.20
2023-01-13T17:54:18.121Z,4.05
2023-01-13T17:56:48.545Z,3.13
2023-01-13T17:59:20.555Z,2.90
2023-01-13T18:01:52.209Z,3.40
2023-01-13T18:04:28.756Z,3.30
2023-01-13T18:06:59.669Z,4.15
2023-01-13T18:09:33.274Z,2.97
2023-01-13T18:12:04.526Z,2.97
2023-01-13T18:14:35.046Z,2.30
2023-01-13T18:17:05.597Z,3.55
2023-01-13T18:19:48.435Z,3.00
2023-01-13T18:22:31.299Z,5.28
2023-01-13T18:25:16.931Z,4.22
2023-01-13T18:27:47.417Z,4.55
2023-01-13T18:30:19.322Z,4.00
2023-01-13T18:32:52.204Z,4.85
2023-01-13T18:35:24.217Z,4.18
2023-01-13T18:37:55.069Z,3.85
2023-01-13T18:40:28.150Z,4.25
2023-01-13T18:42:56.584Z,3.88
2023-01-13T18:45:29.316Z,4.25
2023-01-13T18:48:01.386Z,3.90
2023-01-13T18:50:32.022Z,3.53
2023-01-13T18:53:02.507Z,2.90
2023-01-13T18:55:35.426Z,3.20
2023-01-13T18:58:06.533Z,3.10
2023-01-13T19:00:37.865Z,3.13
2023-01-13T19:05:38.735Z,3.13
2023-01-13T19:08:09.999Z,2.80
2023-01-13T19:10:44.165Z,3.47
2023-01-13T19:13:16.740Z,4.20
2023-01-13T19:15:53.189Z,5.25
2023-01-13T19:18:26.214Z,4.10
2023-01-13T19:20:56.753Z,3.67
2023-01-13T19:23:27.193Z,3.28
2023-01-13T19:26:01.999Z,3.38
2023-01-13T19:28:32.749Z,3.63
2023-01-13T19:31:05.503Z,3.50
2023-01-13T19:33:43.775Z,4.53
2023-01-13T19:36:19.231Z,3.67
2023-01-13T19:38:51.209Z,3.85
2023-01-13T19:41:37.252Z,3.70
2023-01-13T19:44:20.305Z,3.50
2023-01-13T19:46:55.461Z,3.28
2023-01-13T19:49:28.059Z,3.00
2023-01-13T19:51:59.164Z,3.58
2023-01-13T19:54:29.552Z,2.83
2023-01-13T19:57:02.623Z,2.92
2023-01-13T19:59:33.698Z,3.60
2023-01-13T20:02:10.683Z,4.18
2023-01-13T20:04:46.294Z,3.42
2023-01-13T20:07:17.161Z,3.83
2023-01-13T20:09:47.437Z,4.63
2023-01-13T20:12:21.278Z,7.70
2023-01-13T20:14:51.939Z,5.05
2023-01-13T20:17:25.677Z,5.18
2023-01-13T20:19:56.491Z,5.03
2023-01-13T20:22:26.933Z,3.20
2023-01-13T20:24:57.827Z,4.22
2023-01-13T20:27:31.116Z,2.92
2023-01-13T20:30:01.919Z,3.25
2023-01-13T20:32:32.259Z,2.38
2023-01-13T20:35:02.588Z,2.95
2023-01-13T20:37:32.938Z,3.15
2023-01-13T20:40:05.159Z,3.25
2023-01-13T20:42:44.862Z,3.65
2023-01-13T20:45:22.573Z,3.90
2023-01-13T20:47:53.000Z,3.22
2023-01-13T20:50:23.785Z,3.28
2023-01-13T20:52:54.448Z,4.20
2023-01-13T20:55:24.957Z,4.05
2023-01-13T20:57:57.912Z,3.20
2023-01-13T21:00:28.648Z,3.40
2023-01-13T21:03:00.036Z,3.78
2023-01-13T21:05:30.871Z,3.15
2023-01-13T21:08:01.173Z,3.38
2023-01-13T21:10:31.681Z,2.90
2023-01-13T21:13:17.040Z,2.75
2023-01-13T21:15:50.557Z,5.13
2023-01-13T21:18:33.343Z,3.72
2023-01-13T21:21:14.058Z,2.42
2023-01-13T21:23:47.326Z,2.30
2023-01-13T21:26:19.627Z,2.50
2023-01-13T21:28:52.996Z,3.30
2023-01-13T21:31:24.378Z,3.03
2023-01-13T21:33:56.224Z,2.63
2023-01-13T21:36:26.746Z,3.75
2023-01-13T21:38:57.987Z,4.30
2023-01-13T21:41:41.848Z,3.60
2023-01-13T21:44:30.369Z,3.10
2023-01-13T21:47:13.433Z,3.05
2023-01-13T21:49:44.739Z,3.50
2023-01-13T21:52:16.561Z,2.97
2023-01-13T21:54:59.402Z,2.42
2023-01-13T21:57:30.775Z,2.25
2023-01-13T22:00:04.194Z,2.85
2023-01-13T22:02:36.761Z,3.53
2023-01-13T22:05:10.283Z,4.18
2023-01-13T22:07:42.114Z,2.88
2023-01-13T22:10:15.667Z,3.05
2023-01-13T22:12:47.010Z,2.38
2023-01-13T22:15:20.448Z,3.42
2023-01-13T22:17:54.204Z,2.92
2023-01-13T22:20:25.893Z,3.03
2023-01-13T22:22:56.649Z,3.78
2023-01-13T22:25:27.413Z,3.05
2023-01-13T22:28:03.832Z,4.88
2023-01-13T22:30:37.140Z,3.53
2023-01-13T22:33:07.840Z,3.47
2023-01-13T22:35:38.719Z,4.95
2023-01-13T22:38:12.323Z,3.72
2023-01-13T22:40:43.083Z,3.28
2023-01-13T22:43:14.381Z,2.63
2023-01-13T22:45:47.785Z,3.60
2023-01-13T22:48:18.630Z,3.20
2023-01-13T22:50:49.488Z,4.03
2023-01-13T22:53:20.268Z,4.22
2023-01-13T22:55:57.385Z,3.95
2023-01-13T22:58:28.756Z,3.22
2023-01-13T23:01:11.397Z,4.65
2023-01-13T23:03:42.599Z,3.20
2023-01-13T23:06:13.542Z,2.63
2023-01-13T23:08:44.690Z,3.78
2023-01-13T23:11:19.010Z,3.75
2023-01-13T23:13:50.109Z,3.25
2023-01-13T23:16:24.742Z,3.30
2023-01-13T23:18:55.636Z,3.03
2023-01-13T23:21:28.941Z,2.88
2023-01-13T23:24:00.477Z,3.22
2023-01-13T23:26:32.587Z,3.05
2023-01-13T23:29:04.598Z,2.85
2023-01-13T23:31:38.233Z,2.60
2023-01-13T23:34:09.046Z,3.55
2023-01-13T23:36:41.988Z,3.63
2023-01-13T23:39:12.753Z,3.80
2023-01-13T23:41:43.488Z,2.38
2023-01-13T23:44:14.255Z,3.55
2023-01-13T23:46:47.760Z,3.28
2023-01-13T23:49:18.565Z,4.60
2023-01-13T23:51:49.261Z,3.10
2023-01-13T23:54:20.206Z,2.58
2023-01-13T23:56:53.275Z,2.67
2023-01-13T23:59:24.198Z,2.67
